sensor_id;sensor_type;location;lat;lon;timestamp;temperature;humidity
37844;DHT22;23930;57.632;18.292;2022-07-06T00:00:06;16.50;99.90
37844;DHT22;23930;57.632;18.292;2022-07-06T00:02:33;16.50;99.90
37844;DHT22;23930;57.632;18.292;2022-07-06T00:05:00;16.50;99.90
37844;DHT22;23930;57.632;18.292;2022-07-06T00:07:27;16.50;99.90
37844;DHT22;23930;57.632;18.292;2022-07-06T00:09:54;16.50;99.90
37844;DHT22;23930;57.632;18.292;2022-07-06T00:12:21;16.50;99.90
37844;DHT22;23930;57.632;18.292;2022-07-06T00:14:47;16.50;99.90
37844;DHT22;23930;57.632;18.292;2022-07-06T00:17:14;16.50;99.90
37844;DHT22;23930;57.632;18.292;2022-07-06T00:19:42;16.40;99.90
37844;DHT22;23930;57.632;18.292;2022-07-06T00:22:08;16.40;99.90
37844;DHT22;23930;57.632;18.292;2022-07-06T00:24:35;16.40;99.90
37844;DHT22;23930;57.632;18.292;2022-07-06T00:27:03;16.40;99.90
37844;DHT22;23930;57.632;18.292;2022-07-06T00:29:30;16.30;99.90
37844;DHT22;23930;57.632;18.292;2022-07-06T00:31:57;16.30;99.90
37844;DHT22;23930;57.632;18.292;2022-07-06T00:34:24;16.30;99.90
37844;DHT22;23930;57.632;18.292;2022-07-06T00:36:51;16.30;99.90
37844;DHT22;23930;57.632;18.292;2022-07-06T00:39:18;16.30;99.90
37844;DHT22;23930;57.632;18.292;2022-07-06T00:41:46;16.30;99.90
37844;DHT22;23930;57.632;18.292;2022-07-06T00:44:13;16.20;99.90
37844;DHT22;23930;57.632;18.292;2022-07-06T00:46:40;16.20;99.90
37844;DHT22;23930;57.632;18.292;2022-07-06T00:49:07;16.20;99.90
37844;DHT22;23930;57.632;18.292;2022-07-06T00:51:54;16.20;99.90
37844;DHT22;23930;57.632;18.292;2022-07-06T00:54:21;16.10;99.90
37844;DHT22;23930;57.632;18.292;2022-07-06T00:56:48;16.10;99.90
37844;DHT22;23930;57.632;18.292;2022-07-06T00:59:15;16.10;99.90
37844;DHT22;23930;57.632;18.292;2022-07-06T01:01:42;16.00;99.90
37844;DHT22;23930;57.632;18.292;2022-07-06T01:04:09;16.10;99.90
37844;DHT22;23930;57.632;18.292;2022-07-06T01:06:36;16.00;99.90
37844;DHT22;23930;57.632;18.292;2022-07-06T01:09:04;16.00;99.90
37844;DHT22;23930;57.632;18.292;2022-07-06T01:11:31;15.90;99.90
37844;DHT22;23930;57.632;18.292;2022-07-06T01:14:00;15.90;99.90
37844;DHT22;23930;57.632;18.292;2022-07-06T01:16:27;15.90;99.90
37844;DHT22;23930;57.632;18.292;2022-07-06T01:18:54;15.90;99.90
37844;DHT22;23930;57.632;18.292;2022-07-06T01:21:22;15.90;99.90
37844;DHT22;23930;57.632;18.292;2022-07-06T01:23:49;15.90;99.90
37844;DHT22;23930;57.632;18.292;2022-07-06T01:26:17;15.90;99.90
37844;DHT22;23930;57.632;18.292;2022-07-06T01:28:51;15.80;99.90
37844;DHT22;23930;57.632;18.292;2022-07-06T01:31:24;15.80;99.90
37844;DHT22;23930;57.632;18.292;2022-07-06T01:33:54;15.80;99.90
37844;DHT22;23930;57.632;18.292;2022-07-06T01:36:21;15.80;99.90
37844;DHT22;23930;57.632;18.292;2022-07-06T01:38:54;15.80;99.90
37844;DHT22;23930;57.632;18.292;2022-07-06T01:41:23;15.80;99.90
37844;DHT22;23930;57.632;18.292;2022-07-06T01:43:50;15.80;99.90
37844;DHT22;23930;57.632;18.292;2022-07-06T01:46:18;15.80;99.90
37844;DHT22;23930;57.632;18.292;2022-07-06T01:48:47;15.80;99.90
37844;DHT22;23930;57.632;18.292;2022-07-06T01:51:14;15.80;99.90
37844;DHT22;23930;57.632;18.292;2022-07-06T01:53:44;15.70;99.90
37844;DHT22;23930;57.632;18.292;2022-07-06T01:56:11;15.70;99.90
37844;DHT22;23930;57.632;18.292;2022-07-06T01:58:39;15.70;99.90
37844;DHT22;23930;57.632;18.292;2022-07-06T02:01:12;15.70;99.90
37844;DHT22;23930;57.632;18.292;2022-07-06T02:03:40;15.70;99.90
37844;DHT22;23930;57.632;18.292;2022-07-06T02:06:08;15.60;99.90
37844;DHT22;23930;57.632;18.292;2022-07-06T02:08:36;15.60;99.90
37844;DHT22;23930;57.632;18.292;2022-07-06T02:11:07;15.60;99.90
37844;DHT22;23930;57.632;18.292;2022-07-06T02:13:37;15.60;99.90
37844;DHT22;23930;57.632;18.292;2022-07-06T02:16:06;15.60;99.90
37844;DHT22;23930;57.632;18.292;2022-07-06T02:18:34;15.60;99.90
37844;DHT22;23930;57.632;18.292;2022-07-06T02:21:01;15.60;99.90
37844;DHT22;23930;57.632;18.292;2022-07-06T02:23:28;15.50;99.90
37844;DHT22;23930;57.632;18.292;2022-07-06T02:25:55;15.50;99.90
37844;DHT22;23930;57.632;18.292;2022-07-06T02:28:23;15.50;99.90
37844;DHT22;23930;57.632;18.292;2022-07-06T02:30:51;15.50;99.90
37844;DHT22;23930;57.632;18.292;2022-07-06T02:33:18;15.50;99.90
37844;DHT22;23930;57.632;18.292;2022-07-06T02:35:46;15.50;99.90
37844;DHT22;23930;57.632;18.292;2022-07-06T02:38:13;15.50;99.90
37844;DHT22;23930;57.632;18.292;2022-07-06T02:40:40;15.50;99.90
37844;DHT22;23930;57.632;18.292;2022-07-06T02:43:07;15.50;99.90
37844;DHT22;23930;57.632;18.292;2022-07-06T02:45:35;15.50;99.90
37844;DHT22;23930;57.632;18.292;2022-07-06T02:48:03;15.50;99.90
37844;DHT22;23930;57.632;18.292;2022-07-06T02:50:31;15.50;99.90
37844;DHT22;23930;57.632;18.292;2022-07-06T02:52:58;15.40;99.90
37844;DHT22;23930;57.632;18.292;2022-07-06T02:55:26;15.40;99.90
37844;DHT22;23930;57.632;18.292;2022-07-06T02:57:53;15.40;99.90
37844;DHT22;23930;57.632;18.292;2022-07-06T03:00:22;15.40;99.90
37844;DHT22;23930;57.632;18.292;2022-07-06T03:02:49;15.40;99.90
37844;DHT22;23930;57.632;18.292;2022-07-06T03:05:17;15.40;99.90
37844;DHT22;23930;57.632;18.292;2022-07-06T03:07:44;15.40;99.90
37844;DHT22;23930;57.632;18.292;2022-07-06T03:10:11;15.40;99.90
37844;DHT22;23930;57.632;18.292;2022-07-06T03:12:39;15.30;99.90
37844;DHT22;23930;57.632;18.292;2022-07-06T03:15:06;15.40;99.90
37844;DHT22;23930;57.632;18.292;2022-07-06T03:17:38;15.40;99.90
37844;DHT22;23930;57.632;18.292;2022-07-06T03:20:07;15.40;99.90
37844;DHT22;23930;57.632;18.292;2022-07-06T03:22:34;15.40;99.90
37844;DHT22;23930;57.632;18.292;2022-07-06T03:25:02;15.40;99.90
37844;DHT22;23930;57.632;18.292;2022-07-06T03:27:30;15.40;99.90
37844;DHT22;23930;57.632;18.292;2022-07-06T03:29:58;15.40;99.90
37844;DHT22;23930;57.632;18.292;2022-07-06T03:32:25;15.40;99.90
37844;DHT22;23930;57.632;18.292;2022-07-06T03:34:52;15.40;99.90
37844;DHT22;23930;57.632;18.292;2022-07-06T03:37:19;15.50;99.90
37844;DHT22;23930;57.632;18.292;2022-07-06T03:39:47;15.50;99.90
37844;DHT22;23930;57.632;18.292;2022-07-06T03:42:15;15.50;99.90
37844;DHT22;23930;57.632;18.292;2022-07-06T03:44:42;15.60;99.90
37844;DHT22;23930;57.632;18.292;2022-07-06T03:47:09;15.60;99.90
37844;DHT22;23930;57.632;18.292;2022-07-06T03:49:36;15.60;99.90
37844;DHT22;23930;57.632;18.292;2022-07-06T03:52:06;15.70;99.90
37844;DHT22;23930;57.632;18.292;2022-07-06T03:54:40;15.70;99.90
37844;DHT22;23930;57.632;18.292;2022-07-06T03:57:09;15.70;99.90
37844;DHT22;23930;57.632;18.292;2022-07-06T03:59:38;15.70;99.90
37844;DHT22;23930;57.632;18.292;2022-07-06T04:02:05;15.70;99.90
37844;DHT22;23930;57.632;18.292;2022-07-06T04:04:33;15.70;99.90
37844;DHT22;23930;57.632;18.292;2022-07-06T04:07:01;15.80;99.90
37844;DHT22;23930;57.632;18.292;2022-07-06T04:09:28;15.70;99.90
37844;DHT22;23930;57.632;18.292;2022-07-06T04:11:55;15.70;99.90
37844;DHT22;23930;57.632;18.292;2022-07-06T04:14:22;15.60;99.90
37844;DHT22;23930;57.632;18.292;2022-07-06T04:16:49;15.60;99.90
37844;DHT22;23930;57.632;18.292;2022-07-06T04:19:16;15.60;99.90
37844;DHT22;23930;57.632;18.292;2022-07-06T04:21:43;15.70;99.90
37844;DHT22;23930;57.632;18.292;2022-07-06T04:24:10;15.70;99.90
37844;DHT22;23930;57.632;18.292;2022-07-06T04:26:38;15.70;99.90
37844;DHT22;23930;57.632;18.292;2022-07-06T04:29:05;15.70;99.90
37844;DHT22;23930;57.632;18.292;2022-07-06T04:31:32;15.70;99.90
37844;DHT22;23930;57.632;18.292;2022-07-06T04:33:59;15.80;99.90
37844;DHT22;23930;57.632;18.292;2022-07-06T04:36:27;15.80;99.90
37844;DHT22;23930;57.632;18.292;2022-07-06T04:38:55;15.80;99.90
37844;DHT22;23930;57.632;18.292;2022-07-06T04:41:22;15.80;99.90
37844;DHT22;23930;57.632;18.292;2022-07-06T04:43:51;15.80;99.90
37844;DHT22;23930;57.632;18.292;2022-07-06T04:46:19;15.80;99.90
37844;DHT22;23930;57.632;18.292;2022-07-06T04:48:49;15.70;99.90
37844;DHT22;23930;57.632;18.292;2022-07-06T04:51:21;15.70;99.90
37844;DHT22;23930;57.632;18.292;2022-07-06T04:53:49;15.70;99.90
37844;DHT22;23930;57.632;18.292;2022-07-06T04:56:16;15.70;99.90
37844;DHT22;23930;57.632;18.292;2022-07-06T04:58:43;15.80;99.90
37844;DHT22;23930;57.632;18.292;2022-07-06T05:01:13;15.80;99.90
37844;DHT22;23930;57.632;18.292;2022-07-06T05:03:41;15.80;99.90
37844;DHT22;23930;57.632;18.292;2022-07-06T05:06:11;15.90;99.90
37844;DHT22;23930;57.632;18.292;2022-07-06T05:08:38;16.00;99.90
37844;DHT22;23930;57.632;18.292;2022-07-06T05:11:05;15.90;99.90
37844;DHT22;23930;57.632;18.292;2022-07-06T05:13:32;16.00;99.90
37844;DHT22;23930;57.632;18.292;2022-07-06T05:15:59;16.00;99.90
37844;DHT22;23930;57.632;18.292;2022-07-06T05:18:27;16.00;99.90
37844;DHT22;23930;57.632;18.292;2022-07-06T05:20:55;16.00;99.90
37844;DHT22;23930;57.632;18.292;2022-07-06T05:23:22;15.90;99.90
37844;DHT22;23930;57.632;18.292;2022-07-06T05:25:49;15.90;99.90
37844;DHT22;23930;57.632;18.292;2022-07-06T05:28:16;16.00;99.90
37844;DHT22;23930;57.632;18.292;2022-07-06T05:30:44;16.10;99.90
37844;DHT22;23930;57.632;18.292;2022-07-06T05:33:12;16.10;99.90
37844;DHT22;23930;57.632;18.292;2022-07-06T05:35:39;16.20;99.90
37844;DHT22;23930;57.632;18.292;2022-07-06T05:38:20;16.20;99.90
37844;DHT22;23930;57.632;18.292;2022-07-06T05:40:48;16.20;99.90
37844;DHT22;23930;57.632;18.292;2022-07-06T05:43:16;16.20;99.90
37844;DHT22;23930;57.632;18.292;2022-07-06T05:45:43;16.30;99.90
37844;DHT22;23930;57.632;18.292;2022-07-06T05:48:10;16.30;99.90
37844;DHT22;23930;57.632;18.292;2022-07-06T05:50:57;16.30;99.90
37844;DHT22;23930;57.632;18.292;2022-07-06T05:53:24;16.30;99.90
37844;DHT22;23930;57.632;18.292;2022-07-06T05:55:53;16.40;99.90
37844;DHT22;23930;57.632;18.292;2022-07-06T05:58:21;16.30;99.90
37844;DHT22;23930;57.632;18.292;2022-07-06T06:00:48;16.40;99.90
37844;DHT22;23930;57.632;18.292;2022-07-06T06:03:18;16.50;99.90
37844;DHT22;23930;57.632;18.292;2022-07-06T06:05:47;16.50;99.90
37844;DHT22;23930;57.632;18.292;2022-07-06T06:08:17;16.50;99.90
37844;DHT22;23930;57.632;18.292;2022-07-06T06:10:44;16.40;99.90
37844;DHT22;23930;57.632;18.292;2022-07-06T06:13:14;16.30;99.90
37844;DHT22;23930;57.632;18.292;2022-07-06T06:15:41;16.30;99.90
37844;DHT22;23930;57.632;18.292;2022-07-06T06:18:08;16.40;99.90
37844;DHT22;23930;57.632;18.292;2022-07-06T06:20:35;16.40;99.90
37844;DHT22;23930;57.632;18.292;2022-07-06T06:23:03;16.50;99.90
37844;DHT22;23930;57.632;18.292;2022-07-06T06:25:36;16.60;99.90
37844;DHT22;23930;57.632;18.292;2022-07-06T06:28:08;16.60;99.90
37844;DHT22;23930;57.632;18.292;2022-07-06T06:30:36;16.70;99.90
37844;DHT22;23930;57.632;18.292;2022-07-06T06:33:18;16.70;99.90
37844;DHT22;23930;57.632;18.292;2022-07-06T06:35:46;16.60;99.90
37844;DHT22;23930;57.632;18.292;2022-07-06T06:38:14;16.50;99.90
37844;DHT22;23930;57.632;18.292;2022-07-06T06:40:41;16.50;99.90
37844;DHT22;23930;57.632;18.292;2022-07-06T06:43:08;16.60;99.90
37844;DHT22;23930;57.632;18.292;2022-07-06T06:45:54;16.60;99.90
37844;DHT22;23930;57.632;18.292;2022-07-06T06:48:21;16.60;99.90
37844;DHT22;23930;57.632;18.292;2022-07-06T06:50:48;16.70;99.90
37844;DHT22;23930;57.632;18.292;2022-07-06T06:53:16;16.90;99.90
37844;DHT22;23930;57.632;18.292;2022-07-06T06:55:43;16.80;99.90
37844;DHT22;23930;57.632;18.292;2022-07-06T06:58:10;16.90;99.90
37844;DHT22;23930;57.632;18.292;2022-07-06T07:00:37;16.90;99.90
37844;DHT22;23930;57.632;18.292;2022-07-06T07:03:04;16.80;99.90
37844;DHT22;23930;57.632;18.292;2022-07-06T07:05:31;16.80;99.90
37844;DHT22;23930;57.632;18.292;2022-07-06T07:07:58;16.80;99.90
37844;DHT22;23930;57.632;18.292;2022-07-06T07:10:31;16.80;99.90
37844;DHT22;23930;57.632;18.292;2022-07-06T07:12:59;16.80;99.90
37844;DHT22;23930;57.632;18.292;2022-07-06T07:15:26;16.90;99.90
37844;DHT22;23930;57.632;18.292;2022-07-06T07:17:53;16.90;99.90
37844;DHT22;23930;57.632;18.292;2022-07-06T07:20:20;16.90;99.90
37844;DHT22;23930;57.632;18.292;2022-07-06T07:22:47;17.00;99.90
37844;DHT22;23930;57.632;18.292;2022-07-06T07:25:14;17.00;99.90
37844;DHT22;23930;57.632;18.292;2022-07-06T07:27:41;17.00;99.90
37844;DHT22;23930;57.632;18.292;2022-07-06T07:30:08;17.00;99.90
37844;DHT22;23930;57.632;18.292;2022-07-06T07:32:35;17.10;99.90
37844;DHT22;23930;57.632;18.292;2022-07-06T07:35:03;17.10;99.90
37844;DHT22;23930;57.632;18.292;2022-07-06T07:37:30;16.90;99.90
37844;DHT22;23930;57.632;18.292;2022-07-06T07:39:57;16.90;99.90
37844;DHT22;23930;57.632;18.292;2022-07-06T07:42:24;16.90;99.90
37844;DHT22;23930;57.632;18.292;2022-07-06T07:44:51;16.90;99.90
37844;DHT22;23930;57.632;18.292;2022-07-06T07:47:18;16.80;99.90
37844;DHT22;23930;57.632;18.292;2022-07-06T07:49:45;16.80;99.90
37844;DHT22;23930;57.632;18.292;2022-07-06T07:52:12;16.80;99.90
37844;DHT22;23930;57.632;18.292;2022-07-06T07:54:39;16.80;99.90
37844;DHT22;23930;57.632;18.292;2022-07-06T07:57:13;16.80;99.90
37844;DHT22;23930;57.632;18.292;2022-07-06T07:59:40;16.80;99.90
37844;DHT22;23930;57.632;18.292;2022-07-06T08:02:08;16.80;99.90
37844;DHT22;23930;57.632;18.292;2022-07-06T08:04:36;16.90;99.90
37844;DHT22;23930;57.632;18.292;2022-07-06T08:07:03;17.10;99.90
37844;DHT22;23930;57.632;18.292;2022-07-06T08:09:30;17.20;99.90
37844;DHT22;23930;57.632;18.292;2022-07-06T08:11:57;17.30;99.90
37844;DHT22;23930;57.632;18.292;2022-07-06T08:14:25;17.30;99.90
37844;DHT22;23930;57.632;18.292;2022-07-06T08:16:52;17.40;99.90
37844;DHT22;23930;57.632;18.292;2022-07-06T08:19:19;17.40;99.90
37844;DHT22;23930;57.632;18.292;2022-07-06T08:21:46;17.40;99.90
37844;DHT22;23930;57.632;18.292;2022-07-06T08:24:13;17.40;99.90
37844;DHT22;23930;57.632;18.292;2022-07-06T08:26:40;17.50;99.90
37844;DHT22;23930;57.632;18.292;2022-07-06T08:29:07;17.60;99.90
37844;DHT22;23930;57.632;18.292;2022-07-06T08:31:34;17.70;99.90
37844;DHT22;23930;57.632;18.292;2022-07-06T08:34:21;17.70;99.90
37844;DHT22;23930;57.632;18.292;2022-07-06T08:36:48;17.80;99.90
37844;DHT22;23930;57.632;18.292;2022-07-06T08:39:15;17.90;99.90
37844;DHT22;23930;57.632;18.292;2022-07-06T08:41:42;18.00;99.90
37844;DHT22;23930;57.632;18.292;2022-07-06T08:44:17;18.20;99.90
37844;DHT22;23930;57.632;18.292;2022-07-06T08:46:45;18.30;99.90
37844;DHT22;23930;57.632;18.292;2022-07-06T08:49:16;18.20;99.90
37844;DHT22;23930;57.632;18.292;2022-07-06T08:51:44;18.20;99.90
37844;DHT22;23930;57.632;18.292;2022-07-06T08:54:11;18.30;99.90
37844;DHT22;23930;57.632;18.292;2022-07-06T08:56:39;18.30;99.90
37844;DHT22;23930;57.632;18.292;2022-07-06T08:59:15;18.20;99.90
37844;DHT22;23930;57.632;18.292;2022-07-06T09:01:44;18.10;99.90
37844;DHT22;23930;57.632;18.292;2022-07-06T09:04:12;18.00;99.90
37844;DHT22;23930;57.632;18.292;2022-07-06T09:06:43;17.80;99.90
37844;DHT22;23930;57.632;18.292;2022-07-06T09:09:20;17.60;99.90
37844;DHT22;23930;57.632;18.292;2022-07-06T09:11:51;17.70;99.90
37844;DHT22;23930;57.632;18.292;2022-07-06T09:14:18;17.80;99.90
37844;DHT22;23930;57.632;18.292;2022-07-06T09:16:52;17.90;99.90
37844;DHT22;23930;57.632;18.292;2022-07-06T09:19:27;17.90;99.90
37844;DHT22;23930;57.632;18.292;2022-07-06T09:21:54;17.90;99.90
37844;DHT22;23930;57.632;18.292;2022-07-06T09:24:21;18.00;99.90
37844;DHT22;23930;57.632;18.292;2022-07-06T09:26:48;17.90;99.90
37844;DHT22;23930;57.632;18.292;2022-07-06T09:29:15;17.90;99.90
37844;DHT22;23930;57.632;18.292;2022-07-06T09:31:42;18.00;99.90
37844;DHT22;23930;57.632;18.292;2022-07-06T09:34:09;18.10;99.90
37844;DHT22;23930;57.632;18.292;2022-07-06T09:36:48;18.20;99.90
37844;DHT22;23930;57.632;18.292;2022-07-06T09:39:17;18.30;99.90
37844;DHT22;23930;57.632;18.292;2022-07-06T09:41:46;18.40;99.90
37844;DHT22;23930;57.632;18.292;2022-07-06T09:44:13;18.40;99.90
37844;DHT22;23930;57.632;18.292;2022-07-06T09:46:46;18.50;99.90
37844;DHT22;23930;57.632;18.292;2022-07-06T09:49:17;18.50;99.90
37844;DHT22;23930;57.632;18.292;2022-07-06T09:51:47;18.50;99.90
37844;DHT22;23930;57.632;18.292;2022-07-06T09:54:14;18.50;99.90
37844;DHT22;23930;57.632;18.292;2022-07-06T09:56:44;18.40;99.90
37844;DHT22;23930;57.632;18.292;2022-07-06T09:59:12;18.30;99.90
37844;DHT22;23930;57.632;18.292;2022-07-06T10:01:40;18.20;99.90
37844;DHT22;23930;57.632;18.292;2022-07-06T10:04:09;18.20;99.90
37844;DHT22;23930;57.632;18.292;2022-07-06T10:06:36;18.20;99.90
37844;DHT22;23930;57.632;18.292;2022-07-06T10:09:08;18.40;99.90
37844;DHT22;23930;57.632;18.292;2022-07-06T10:11:47;18.60;99.90
37844;DHT22;23930;57.632;18.292;2022-07-06T10:14:17;18.50;99.90
37844;DHT22;23930;57.632;18.292;2022-07-06T10:16:46;18.60;99.90
37844;DHT22;23930;57.632;18.292;2022-07-06T10:19:14;18.70;99.90
37844;DHT22;23930;57.632;18.292;2022-07-06T10:21:43;18.70;99.90
37844;DHT22;23930;57.632;18.292;2022-07-06T10:24:11;18.80;99.90
37844;DHT22;23930;57.632;18.292;2022-07-06T10:26:40;18.90;99.90
37844;DHT22;23930;57.632;18.292;2022-07-06T10:29:07;19.10;99.90
37844;DHT22;23930;57.632;18.292;2022-07-06T10:31:38;19.10;99.90
37844;DHT22;23930;57.632;18.292;2022-07-06T10:34:09;19.10;99.90
37844;DHT22;23930;57.632;18.292;2022-07-06T10:36:38;19.20;99.90
37844;DHT22;23930;57.632;18.292;2022-07-06T10:39:06;19.30;99.90
37844;DHT22;23930;57.632;18.292;2022-07-06T10:41:52;19.30;99.90
37844;DHT22;23930;57.632;18.292;2022-07-06T10:44:24;19.30;99.90
37844;DHT22;23930;57.632;18.292;2022-07-06T10:46:55;19.40;99.90
37844;DHT22;23930;57.632;18.292;2022-07-06T10:49:24;19.40;99.90
37844;DHT22;23930;57.632;18.292;2022-07-06T10:52:11;19.70;99.90
37844;DHT22;23930;57.632;18.292;2022-07-06T10:54:43;19.90;99.90
37844;DHT22;23930;57.632;18.292;2022-07-06T10:57:12;19.80;99.90
37844;DHT22;23930;57.632;18.292;2022-07-06T11:00:00;19.70;99.90
37844;DHT22;23930;57.632;18.292;2022-07-06T11:02:38;19.80;99.90
37844;DHT22;23930;57.632;18.292;2022-07-06T11:05:11;19.90;99.90
37844;DHT22;23930;57.632;18.292;2022-07-06T11:08:01;19.90;99.90
37844;DHT22;23930;57.632;18.292;2022-07-06T11:10:46;19.90;99.90
37844;DHT22;23930;57.632;18.292;2022-07-06T11:13:29;19.90;99.90
37844;DHT22;23930;57.632;18.292;2022-07-06T11:16:01;20.00;99.90
37844;DHT22;23930;57.632;18.292;2022-07-06T11:18:41;19.80;99.90
37844;DHT22;23930;57.632;18.292;2022-07-06T11:21:17;19.80;99.90
37844;DHT22;23930;57.632;18.292;2022-07-06T11:23:49;20.00;99.90
37844;DHT22;23930;57.632;18.292;2022-07-06T11:26:17;20.20;99.90
37844;DHT22;23930;57.632;18.292;2022-07-06T11:28:46;20.40;99.90
37844;DHT22;23930;57.632;18.292;2022-07-06T11:31:15;20.40;99.90
37844;DHT22;23930;57.632;18.292;2022-07-06T11:33:45;20.40;99.90
37844;DHT22;23930;57.632;18.292;2022-07-06T11:36:19;20.50;99.90
37844;DHT22;23930;57.632;18.292;2022-07-06T11:38:48;20.60;99.90
37844;DHT22;23930;57.632;18.292;2022-07-06T11:41:16;20.60;99.90
37844;DHT22;23930;57.632;18.292;2022-07-06T11:43:44;20.60;99.90
37844;DHT22;23930;57.632;18.292;2022-07-06T11:46:23;20.70;99.90
37844;DHT22;23930;57.632;18.292;2022-07-06T11:48:56;20.60;99.90
37844;DHT22;23930;57.632;18.292;2022-07-06T11:51:25;20.50;99.90
37844;DHT22;23930;57.632;18.292;2022-07-06T11:53:57;20.70;99.90
37844;DHT22;23930;57.632;18.292;2022-07-06T11:56:28;20.50;99.90
37844;DHT22;23930;57.632;18.292;2022-07-06T11:58:56;20.60;99.90
37844;DHT22;23930;57.632;18.292;2022-07-06T12:01:25;20.80;99.90
37844;DHT22;23930;57.632;18.292;2022-07-06T12:03:57;20.90;99.90
37844;DHT22;23930;57.632;18.292;2022-07-06T12:06:26;20.80;99.90
37844;DHT22;23930;57.632;18.292;2022-07-06T12:09:02;21.00;99.90
37844;DHT22;23930;57.632;18.292;2022-07-06T12:11:33;20.90;99.90
37844;DHT22;23930;57.632;18.292;2022-07-06T12:14:03;21.10;99.90
37844;DHT22;23930;57.632;18.292;2022-07-06T12:16:38;21.00;99.90
37844;DHT22;23930;57.632;18.292;2022-07-06T12:19:06;20.90;99.90
37844;DHT22;23930;57.632;18.292;2022-07-06T12:21:48;20.90;99.90
37844;DHT22;23930;57.632;18.292;2022-07-06T12:24:26;21.00;99.90
37844;DHT22;23930;57.632;18.292;2022-07-06T12:27:14;21.10;99.90
37844;DHT22;23930;57.632;18.292;2022-07-06T12:29:41;21.10;99.90
37844;DHT22;23930;57.632;18.292;2022-07-06T12:32:22;21.00;99.90
37844;DHT22;23930;57.632;18.292;2022-07-06T12:35:03;20.90;99.90
37844;DHT22;23930;57.632;18.292;2022-07-06T12:37:31;21.20;99.90
37844;DHT22;23930;57.632;18.292;2022-07-06T12:39:58;21.30;99.90
37844;DHT22;23930;57.632;18.292;2022-07-06T12:42:25;21.30;99.90
37844;DHT22;23930;57.632;18.292;2022-07-06T12:44:52;21.30;99.90
37844;DHT22;23930;57.632;18.292;2022-07-06T12:47:24;21.20;99.90
37844;DHT22;23930;57.632;18.292;2022-07-06T12:50:09;21.10;99.90
37844;DHT22;23930;57.632;18.292;2022-07-06T12:52:38;21.30;99.90
37844;DHT22;23930;57.632;18.292;2022-07-06T12:55:06;21.50;99.90
37844;DHT22;23930;57.632;18.292;2022-07-06T12:57:45;21.50;99.90
37844;DHT22;23930;57.632;18.292;2022-07-06T13:00:13;21.50;99.90
37844;DHT22;23930;57.632;18.292;2022-07-06T13:02:43;21.50;99.90
37844;DHT22;23930;57.632;18.292;2022-07-06T13:05:30;21.50;99.90
37844;DHT22;23930;57.632;18.292;2022-07-06T13:07:58;21.50;99.90
37844;DHT22;23930;57.632;18.292;2022-07-06T13:10:25;21.60;99.90
37844;DHT22;23930;57.632;18.292;2022-07-06T13:12:52;21.80;99.90
37844;DHT22;23930;57.632;18.292;2022-07-06T13:15:20;21.80;99.90
37844;DHT22;23930;57.632;18.292;2022-07-06T13:17:47;21.90;99.90
37844;DHT22;23930;57.632;18.292;2022-07-06T13:20:14;21.90;99.90
37844;DHT22;23930;57.632;18.292;2022-07-06T13:22:44;22.00;99.90
37844;DHT22;23930;57.632;18.292;2022-07-06T13:25:11;21.90;99.90
37844;DHT22;23930;57.632;18.292;2022-07-06T13:27:39;21.90;99.90
37844;DHT22;23930;57.632;18.292;2022-07-06T13:30:06;22.00;99.90
37844;DHT22;23930;57.632;18.292;2022-07-06T13:32:33;22.00;99.90
37844;DHT22;23930;57.632;18.292;2022-07-06T13:35:00;22.20;99.90
37844;DHT22;23930;57.632;18.292;2022-07-06T13:37:27;22.20;99.90
37844;DHT22;23930;57.632;18.292;2022-07-06T13:39:54;22.20;99.90
37844;DHT22;23930;57.632;18.292;2022-07-06T13:42:21;22.30;99.90
37844;DHT22;23930;57.632;18.292;2022-07-06T13:44:48;22.20;99.90
37844;DHT22;23930;57.632;18.292;2022-07-06T13:47:15;22.30;99.90
37844;DHT22;23930;57.632;18.292;2022-07-06T13:49:42;22.30;99.90
37844;DHT22;23930;57.632;18.292;2022-07-06T13:52:10;22.50;99.90
37844;DHT22;23930;57.632;18.292;2022-07-06T13:54:37;22.70;99.90
37844;DHT22;23930;57.632;18.292;2022-07-06T13:57:04;22.60;99.00
37844;DHT22;23930;57.632;18.292;2022-07-06T13:59:32;22.70;99.20
37844;DHT22;23930;57.632;18.292;2022-07-06T14:01:59;22.70;98.60
37844;DHT22;23930;57.632;18.292;2022-07-06T14:04:26;22.70;99.20
37844;DHT22;23930;57.632;18.292;2022-07-06T14:06:53;22.70;99.40
37844;DHT22;23930;57.632;18.292;2022-07-06T14:09:20;22.70;99.00
37844;DHT22;23930;57.632;18.292;2022-07-06T14:11:47;22.70;97.60
37844;DHT22;23930;57.632;18.292;2022-07-06T14:14:14;22.80;98.20
37844;DHT22;23930;57.632;18.292;2022-07-06T14:16:41;23.20;97.90
37844;DHT22;23930;57.632;18.292;2022-07-06T14:19:08;23.30;98.50
37844;DHT22;23930;57.632;18.292;2022-07-06T14:21:35;23.50;98.00
37844;DHT22;23930;57.632;18.292;2022-07-06T14:24:03;23.60;97.00
37844;DHT22;23930;57.632;18.292;2022-07-06T14:26:30;23.50;97.00
37844;DHT22;23930;57.632;18.292;2022-07-06T14:28:57;23.60;97.10
37844;DHT22;23930;57.632;18.292;2022-07-06T14:31:24;23.60;97.10
37844;DHT22;23930;57.632;18.292;2022-07-06T14:33:51;23.70;96.20
37844;DHT22;23930;57.632;18.292;2022-07-06T14:36:18;23.70;96.70
37844;DHT22;23930;57.632;18.292;2022-07-06T14:38:45;23.80;97.20
37844;DHT22;23930;57.632;18.292;2022-07-06T14:41:12;24.20;97.60
37844;DHT22;23930;57.632;18.292;2022-07-06T14:43:39;24.20;96.90
37844;DHT22;23930;57.632;18.292;2022-07-06T14:46:07;24.30;95.80
37844;DHT22;23930;57.632;18.292;2022-07-06T14:48:34;24.50;96.50
37844;DHT22;23930;57.632;18.292;2022-07-06T14:51:01;24.40;95.90
37844;DHT22;23930;57.632;18.292;2022-07-06T14:53:28;24.40;96.10
37844;DHT22;23930;57.632;18.292;2022-07-06T14:55:56;24.60;96.10
37844;DHT22;23930;57.632;18.292;2022-07-06T14:58:23;24.50;95.90
37844;DHT22;23930;57.632;18.292;2022-07-06T15:00:50;24.30;96.00
37844;DHT22;23930;57.632;18.292;2022-07-06T15:03:26;24.40;96.80
37844;DHT22;23930;57.632;18.292;2022-07-06T15:05:54;24.10;95.90
37844;DHT22;23930;57.632;18.292;2022-07-06T15:08:21;23.60;96.30
37844;DHT22;23930;57.632;18.292;2022-07-06T15:10:48;23.20;96.70
37844;DHT22;23930;57.632;18.292;2022-07-06T15:13:16;23.00;96.30
37844;DHT22;23930;57.632;18.292;2022-07-06T15:15:43;22.80;96.20
37844;DHT22;23930;57.632;18.292;2022-07-06T15:18:22;22.50;97.40
37844;DHT22;23930;57.632;18.292;2022-07-06T15:20:49;22.50;98.00
37844;DHT22;23930;57.632;18.292;2022-07-06T15:23:16;22.30;97.60
37844;DHT22;23930;57.632;18.292;2022-07-06T15:25:43;22.20;96.80